createdAt,value
2019-05-13T00:02:54.273Z,27.60
2019-05-13T00:05:53.628Z,28.03
2019-05-13T00:08:54.380Z,25.80
2019-05-13T00:11:54.046Z,24.43
2019-05-13T00:14:53.957Z,27.80
2019-05-13T00:17:54.369Z,25.17
2019-05-13T00:20:54.252Z,22.80
2019-05-13T00:23:53.560Z,23.43
2019-05-13T00:26:53.209Z,21.47
2019-05-13T00:29:53.415Z,22.00
2019-05-13T00:32:54.591Z,19.90
2019-05-13T00:35:53.593Z,17.67
2019-05-13T00:38:53.498Z,20.60
2019-05-13T00:41:53.187Z,18.97
2019-05-13T00:44:53.223Z,19.87
2019-05-13T00:47:53.687Z,24.40
2019-05-13T00:50:54.516Z,22.93
2019-05-13T00:53:53.772Z,19.40
2019-05-13T00:56:54.777Z,22.63
2019-05-13T00:59:54.187Z,19.87
2019-05-13T01:02:53.406Z,17.13
2019-05-13T01:05:53.556Z,24.07
2019-05-13T01:08:53.681Z,24.70
2019-05-13T01:11:53.669Z,23.77
2019-05-13T01:14:53.437Z,26.87
2019-05-13T01:17:53.489Z,26.00
2019-05-13T01:20:53.813Z,24.03
2019-05-13T01:23:54.346Z,26.20
2019-05-13T01:26:54.173Z,22.77
2019-05-13T01:29:53.602Z,27.30
2019-05-13T01:32:53.997Z,21.67
2019-05-13T01:35:54.032Z,28.43
2019-05-13T01:38:54.112Z,26.10
2019-05-13T01:41:54.060Z,27.63
2019-05-13T01:44:53.909Z,25.30
2019-05-13T01:47:54.414Z,26.57
2019-05-13T01:50:53.618Z,23.27
2019-05-13T01:53:53.417Z,21.50
2019-05-13T01:56:53.516Z,29.23
2019-05-13T01:59:53.763Z,32.00
2019-05-13T02:02:54.502Z,30.40
2019-05-13T02:05:54.370Z,24.67
2019-05-13T02:08:54.557Z,26.33
2019-05-13T02:11:53.995Z,22.50
2019-05-13T02:14:53.522Z,28.57
2019-05-13T02:17:53.754Z,31.17
2019-05-13T02:20:55.382Z,30.60
2019-05-13T02:23:53.789Z,31.33
2019-05-13T02:26:54.312Z,26.77
2019-05-13T02:29:54.081Z,27.27
2019-05-13T02:32:53.258Z,24.83
2019-05-13T02:35:53.132Z,28.20
2019-05-13T02:38:53.286Z,26.90
2019-05-13T02:41:52.896Z,22.30
2019-05-13T02:44:53.112Z,25.40
2019-05-13T02:47:52.390Z,27.30
2019-05-13T02:50:52.894Z,23.93
2019-05-13T02:53:52.705Z,20.57
2019-05-13T02:56:52.684Z,24.57
2019-05-13T02:59:52.799Z,22.40
2019-05-13T03:02:52.466Z,24.10
2019-05-13T03:05:52.915Z,21.53
2019-05-13T03:08:54.535Z,20.77
2019-05-13T03:11:53.955Z,23.97
2019-05-13T03:14:53.415Z,26.47
2019-05-13T03:18:06.048Z,27.93
2019-05-13T03:21:05.076Z,26.10
2019-05-13T03:24:04.188Z,25.97
2019-05-13T03:27:03.464Z,25.43
2019-05-13T03:30:04.295Z,25.53
2019-05-13T03:33:10.100Z,26.87
2019-05-13T03:36:06.369Z,22.43
2019-05-13T03:39:14.479Z,26.10
2019-05-13T03:42:12.344Z,30.03
2019-05-13T03:45:12.953Z,25.50
2019-05-13T03:48:13.283Z,27.50
2019-05-13T03:51:13.508Z,26.80
2019-05-13T03:54:13.283Z,29.13
2019-05-13T03:57:12.770Z,23.53
2019-05-13T04:00:13.507Z,27.20
2019-05-13T04:03:13.730Z,25.87
2019-05-13T04:06:13.853Z,23.10
2019-05-13T04:09:25.652Z,24.87
2019-05-13T04:12:14.075Z,20.93
2019-05-13T04:15:13.224Z,24.97
2019-05-13T04:18:12.794Z,23.50
2019-05-13T04:21:13.078Z,26.70
2019-05-13T04:24:12.878Z,23.23
2019-05-13T04:27:13.252Z,24.67
2019-05-13T04:30:13.522Z,32.53
2019-05-13T04:33:13.851Z,25.37
2019-05-13T04:36:13.966Z,21.67
2019-05-13T04:39:13.156Z,27.40
2019-05-13T04:42:12.901Z,28.17
2019-05-13T04:45:13.369Z,22.93
2019-05-13T04:48:12.917Z,23.33
2019-05-13T04:51:13.599Z,27.67
2019-05-13T04:54:13.248Z,29.20
2019-05-13T04:57:12.575Z,25.07
2019-05-13T05:00:12.888Z,25.43
2019-05-13T05:03:33.294Z,24.33
2019-05-13T05:06:35.901Z,25.40
2019-05-13T05:10:30.422Z,27.90
2019-05-13T05:13:44.930Z,25.83
2019-05-13T05:17:16.274Z,26.57
2019-05-13T05:20:24.798Z,28.20
2019-05-13T05:23:51.564Z,32.43
2019-05-13T05:27:17.532Z,27.10
2019-05-13T05:30:45.393Z,29.43
2019-05-13T05:34:14.324Z,33.43
2019-05-13T05:37:58.623Z,32.13
2019-05-13T05:41:01.545Z,27.33
2019-05-13T05:44:02.383Z,35.53
2019-05-13T05:47:03.048Z,31.23
2019-05-13T05:50:03.117Z,29.77
2019-05-13T05:53:02.729Z,26.67
2019-05-13T05:56:02.407Z,21.80
2019-05-13T05:59:03.104Z,27.07
2019-05-13T06:02:02.284Z,25.73
2019-05-13T06:05:02.531Z,18.93
2019-05-13T06:08:02.035Z,22.93
2019-05-13T06:11:01.389Z,21.43
2019-05-13T06:14:02.310Z,19.40
2019-05-13T06:17:02.639Z,20.80
2019-05-13T06:20:03.609Z,18.00
2019-05-13T06:23:02.934Z,20.80
2019-05-13T06:30:02.196Z,19.67
2019-05-13T06:33:01.599Z,17.23
2019-05-13T06:36:01.260Z,18.70
2019-05-13T06:39:02.213Z,19.67
2019-05-13T06:42:02.836Z,17.03
2019-05-13T06:45:02.352Z,12.17
2019-05-13T06:48:02.467Z,17.27
2019-05-13T06:51:02.501Z,14.10
2019-05-13T06:54:02.369Z,15.20
2019-05-13T06:57:04.142Z,17.20
2019-05-13T07:00:02.167Z,14.07
2019-05-13T07:03:02.306Z,13.90
2019-05-13T07:06:01.838Z,22.50
2019-05-13T07:09:01.507Z,17.50
2019-05-13T07:12:03.116Z,19.23
2019-05-13T07:15:02.529Z,17.27
2019-05-13T07:18:02.457Z,13.47
2019-05-13T07:21:02.319Z,17.13
2019-05-13T07:24:02.327Z,18.00
2019-05-13T07:27:02.067Z,12.87
2019-05-13T07:30:02.205Z,16.90
2019-05-13T07:33:01.744Z,16.60
2019-05-13T07:36:03.163Z,17.27
2019-05-13T07:39:04.729Z,14.80
2019-05-13T07:42:05.855Z,11.80
2019-05-13T07:45:04.654Z,15.53
2019-05-13T07:48:18.342Z,11.90
2019-05-13T07:51:05.075Z,17.67
2019-05-13T07:54:04.261Z,11.13
2019-05-13T07:57:03.249Z,13.10
2019-05-13T08:00:02.385Z,12.57
2019-05-13T08:03:01.715Z,14.30
2019-05-13T08:06:01.966Z,10.87
2019-05-13T08:09:01.838Z,8.80
2019-05-13T08:12:10.158Z,10.50
2019-05-13T08:15:03.460Z,8.90
2019-05-13T08:18:02.495Z,15.17
2019-05-13T08:21:02.176Z,9.03
2019-05-13T08:24:02.778Z,14.43
2019-05-13T08:27:02.392Z,9.30
2019-05-13T08:30:02.019Z,11.77
2019-05-13T08:33:01.919Z,14.20
2019-05-13T08:36:01.667Z,10.70
2019-05-13T08:39:02.703Z,14.03
2019-05-13T08:42:12.901Z,11.30
2019-05-13T08:45:02.642Z,11.10
2019-05-13T08:48:02.193Z,11.57
2019-05-13T08:51:03.001Z,10.07
2019-05-13T08:54:02.562Z,14.63
2019-05-13T08:57:02.937Z,9.73
2019-05-13T09:00:04.967Z,15.57
2019-05-13T09:03:06.209Z,10.87
2019-05-13T09:06:04.155Z,10.47
2019-05-13T09:09:03.339Z,10.20
2019-05-13T09:12:02.789Z,14.73
2019-05-13T09:15:03.230Z,15.40
2019-05-13T09:18:02.872Z,13.10
2019-05-13T09:21:02.517Z,14.70
2019-05-13T09:24:02.325Z,10.60
2019-05-13T09:27:02.095Z,8.50
2019-05-13T09:30:02.711Z,6.43
2019-05-13T09:33:02.153Z,9.00
2019-05-13T09:36:02.141Z,5.73
2019-05-13T09:39:02.141Z,6.53
2019-05-13T09:42:02.615Z,11.03
2019-05-13T09:45:02.467Z,5.90
2019-05-13T09:48:01.841Z,9.10
2019-05-13T09:51:02.382Z,8.93
2019-05-13T09:54:01.649Z,7.07
2019-05-13T09:57:01.827Z,8.90
2019-05-13T10:00:01.952Z,4.03
2019-05-13T10:03:02.267Z,8.30
2019-05-13T10:06:02.326Z,4.50
2019-05-13T10:09:02.361Z,8.83
2019-05-13T10:12:03.314Z,3.20
2019-05-13T10:15:02.464Z,5.60
2019-05-13T10:18:01.863Z,8.23
2019-05-13T10:21:02.210Z,4.90
2019-05-13T10:24:01.216Z,4.77
2019-05-13T10:27:02.452Z,8.70
2019-05-13T10:30:01.257Z,4.83
2019-05-13T10:33:02.915Z,7.23
2019-05-13T10:36:03.389Z,6.53
2019-05-13T10:39:02.500Z,7.03
2019-05-13T10:42:03.604Z,6.73
2019-05-13T10:45:03.001Z,6.57
2019-05-13T10:48:02.951Z,10.03
2019-05-13T10:51:02.442Z,13.43
2019-05-13T10:54:01.371Z,12.23
2019-05-13T10:57:03.558Z,5.80
2019-05-13T11:00:03.258Z,9.23
2019-05-13T11:03:02.404Z,6.27
2019-05-13T11:06:01.454Z,8.30
2019-05-13T11:09:02.045Z,8.20
2019-05-13T11:12:02.047Z,8.13
2019-05-13T11:15:02.522Z,7.23
2019-05-13T11:18:03.031Z,11.23
2019-05-13T11:21:02.878Z,7.73
2019-05-13T11:24:03.291Z,5.60
2019-05-13T11:27:03.005Z,10.80
2019-05-13T11:30:05.856Z,9.53
2019-05-13T11:33:03.140Z,9.47
2019-05-13T11:36:03.490Z,9.70
2019-05-13T11:39:03.174Z,12.53
2019-05-13T11:42:02.568Z,4.10
2019-05-13T11:45:01.967Z,8.30
2019-05-13T11:48:02.321Z,5.23
2019-05-13T11:51:03.805Z,7.93
2019-05-13T11:54:02.580Z,7.00
2019-05-13T11:57:06.249Z,9.97
2019-05-13T12:00:02.895Z,5.13
2019-05-13T12:03:04.233Z,5.00
2019-05-13T12:06:02.781Z,9.60
2019-05-13T12:09:03.138Z,6.90
2019-05-13T12:12:03.227Z,4.80
2019-05-13T12:15:25.862Z,8.33
2019-05-13T12:18:03.189Z,7.90
2019-05-13T12:21:03.743Z,5.27
2019-05-13T12:24:10.545Z,9.30
2019-05-13T12:27:04.458Z,12.43
2019-05-13T12:30:03.334Z,6.67
2019-05-13T12:33:03.147Z,7.80
2019-05-13T12:36:02.385Z,7.77
2019-05-13T12:39:01.181Z,5.17
2019-05-13T12:42:03.409Z,7.83
2019-05-13T12:45:09.346Z,10.37
2019-05-13T12:48:03.281Z,8.33
2019-05-13T12:51:03.296Z,7.70
2019-05-13T12:54:03.782Z,6.03
2019-05-13T12:57:03.556Z,6.00
2019-05-13T13:00:02.776Z,11.30
2019-05-13T13:03:02.230Z,7.97
2019-05-13T13:06:22.596Z,6.20
2019-05-13T13:09:02.179Z,6.17
2019-05-13T13:12:01.106Z,10.00
2019-05-13T13:15:20.331Z,6.03
2019-05-13T13:18:02.503Z,7.13
2019-05-13T13:21:06.650Z,11.43
2019-05-13T13:24:04.555Z,5.70
2019-05-13T13:27:02.638Z,6.63
2019-05-13T13:30:04.452Z,7.10
2019-05-13T13:33:02.787Z,5.03
2019-05-13T13:36:05.267Z,7.63
2019-05-13T13:39:03.776Z,14.80
2019-05-13T13:42:05.682Z,9.80
2019-05-13T13:45:06.236Z,8.40
2019-05-13T13:48:04.454Z,5.00
2019-05-13T13:51:05.005Z,9.97
2019-05-13T13:54:04.349Z,13.27
2019-05-13T13:57:03.406Z,6.63
2019-05-13T14:00:26.619Z,5.10
2019-05-13T14:03:06.348Z,6.80
2019-05-13T14:06:06.144Z,7.83
2019-05-13T14:09:06.665Z,8.37
2019-05-13T14:12:05.761Z,5.17
2019-05-13T14:15:04.910Z,5.97
2019-05-13T14:18:03.733Z,7.80
2019-05-13T14:21:03.330Z,8.73
2019-05-13T14:24:02.818Z,5.70
2019-05-13T14:27:02.936Z,7.00
2019-05-13T14:30:02.257Z,10.13
2019-05-13T14:33:02.413Z,5.47
2019-05-13T14:36:01.955Z,6.20
2019-05-13T14:39:02.788Z,9.43
2019-05-13T14:42:02.286Z,8.77
2019-05-13T14:45:02.182Z,7.87
2019-05-13T14:48:01.665Z,6.90
2019-05-13T14:51:01.880Z,7.30
2019-05-13T14:54:02.739Z,9.73
2019-05-13T14:57:02.341Z,9.90
2019-05-13T15:00:02.529Z,5.20
2019-05-13T15:03:03.062Z,6.60
2019-05-13T15:06:01.932Z,5.63
2019-05-13T15:09:01.747Z,6.60
2019-05-13T15:12:02.113Z,8.50
2019-05-13T15:15:01.970Z,10.60
2019-05-13T15:18:01.705Z,6.60
2019-05-13T15:21:01.755Z,5.03
2019-05-13T15:24:02.316Z,3.87
2019-05-13T15:27:01.222Z,5.00
2019-05-13T15:30:14.575Z,8.10
2019-05-13T15:33:01.765Z,7.00
2019-05-13T15:36:02.102Z,7.37
2019-05-13T15:39:02.041Z,5.20
2019-05-13T15:42:24.138Z,10.30
2019-05-13T15:45:01.997Z,5.70
2019-05-13T15:48:02.325Z,5.60
2019-05-13T15:51:02.155Z,8.93
2019-05-13T15:54:02.678Z,4.57
2019-05-13T15:57:02.374Z,6.53
2019-05-13T16:00:02.013Z,8.27
2019-05-13T16:03:01.619Z,5.83
2019-05-13T16:06:01.690Z,10.73
2019-05-13T16:09:02.752Z,8.13
2019-05-13T16:12:01.789Z,3.70
2019-05-13T16:15:02.021Z,3.80
2019-05-13T16:18:02.522Z,4.27
2019-05-13T16:21:01.848Z,7.17
2019-05-13T16:24:02.618Z,4.40
2019-05-13T16:27:02.482Z,4.43
2019-05-13T16:30:02.431Z,4.90
2019-05-13T16:33:02.900Z,6.30
2019-05-13T16:36:02.772Z,6.70
2019-05-13T16:39:06.165Z,2.90
2019-05-13T16:42:04.952Z,3.70
2019-05-13T16:45:03.810Z,12.57
2019-05-13T16:48:04.194Z,4.73
2019-05-13T16:51:03.068Z,6.93
2019-05-13T16:54:01.812Z,6.23
2019-05-13T16:57:01.273Z,5.50
2019-05-13T17:00:02.516Z,6.07
2019-05-13T17:03:02.436Z,16.07
2019-05-13T17:06:02.179Z,5.00
2019-05-13T17:09:02.061Z,6.50
2019-05-13T17:12:01.448Z,3.70
2019-05-13T17:15:01.374Z,6.73
2019-05-13T17:18:09.233Z,8.83
2019-05-13T17:21:01.522Z,9.03
2019-05-13T17:24:01.538Z,4.90
2019-05-13T17:27:02.043Z,4.97
2019-05-13T17:30:02.211Z,2.90
2019-05-13T17:33:02.411Z,24.80
2019-05-13T17:36:02.034Z,9.77
2019-05-13T17:39:01.972Z,7.93
2019-05-13T17:42:01.678Z,13.17
2019-05-13T17:45:02.328Z,19.77
2019-05-13T17:48:01.268Z,8.37
2019-05-13T17:51:01.318Z,3.77
2019-05-13T17:54:01.537Z,5.83
2019-05-13T17:57:01.950Z,6.57
2019-05-13T18:00:01.125Z,4.87
2019-05-13T18:03:01.853Z,6.10
2019-05-13T18:06:02.360Z,6.80
2019-05-13T18:09:01.375Z,10.63
2019-05-13T18:12:02.389Z,11.03
2019-05-13T18:15:02.416Z,7.37
2019-05-13T18:18:01.604Z,8.00
2019-05-13T18:21:01.522Z,11.03
2019-05-13T18:24:01.936Z,11.30
2019-05-13T18:27:01.466Z,7.43
2019-05-13T18:30:02.165Z,6.17
2019-05-13T18:33:01.431Z,11.63
2019-05-13T18:36:01.829Z,13.70
2019-05-13T18:39:01.605Z,9.13
2019-05-13T18:42:00.761Z,10.03
2019-05-13T18:45:01.945Z,8.30
2019-05-13T18:48:01.708Z,7.57
2019-05-13T18:51:01.340Z,9.10
2019-05-13T18:54:01.281Z,10.70
2019-05-13T18:57:01.575Z,8.20
2019-05-13T19:00:02.061Z,13.60
2019-05-13T19:03:01.637Z,12.60
2019-05-13T19:06:00.376Z,10.20
2019-05-13T19:08:59.305Z,11.67
2019-05-13T19:11:58.120Z,13.33
2019-05-13T19:14:57.140Z,17.80
2019-05-13T19:17:55.887Z,17.60
2019-05-13T19:20:55.073Z,11.63
2019-05-13T19:23:54.084Z,13.30
2019-05-13T19:26:53.177Z,7.87
2019-05-13T19:29:52.822Z,12.60
2019-05-13T19:32:52.125Z,13.63
2019-05-13T19:35:51.831Z,13.63
2019-05-13T19:38:51.335Z,8.37
2019-05-13T19:41:50.190Z,9.60
2019-05-13T19:44:51.037Z,6.60
2019-05-13T19:47:51.678Z,7.13
2019-05-13T19:50:52.146Z,6.67
2019-05-13T19:53:51.678Z,4.90
2019-05-13T19:56:52.029Z,8.33
2019-05-13T19:59:50.916Z,6.27
2019-05-13T20:02:50.544Z,6.47
2019-05-13T20:05:51.435Z,7.50
2019-05-13T20:08:51.791Z,9.43
2019-05-13T20:11:55.294Z,8.37
2019-05-13T20:14:52.095Z,11.77
2019-05-13T20:17:52.100Z,10.47
2019-05-13T20:20:51.894Z,7.50
2019-05-13T20:23:51.922Z,11.23
2019-05-13T20:26:52.200Z,6.50
2019-05-13T20:29:51.309Z,6.93
2019-05-13T20:32:51.548Z,7.70
2019-05-13T20:35:50.801Z,11.00
2019-05-13T20:38:51.597Z,11.03
2019-05-13T20:41:55.539Z,7.17
2019-05-13T20:44:51.400Z,12.17
2019-05-13T20:47:50.738Z,8.73
2019-05-13T20:50:51.799Z,10.50
2019-05-13T20:53:51.778Z,14.23
2019-05-13T20:56:51.779Z,7.27
2019-05-13T20:59:51.658Z,9.97
2019-05-13T21:02:51.791Z,12.13
2019-05-13T21:05:52.053Z,11.00
2019-05-13T21:08:52.148Z,11.13
2019-05-13T21:11:51.589Z,10.27
2019-05-13T21:14:51.285Z,8.73
2019-05-13T21:17:51.601Z,17.13
2019-05-13T21:20:50.663Z,8.57
2019-05-13T21:23:49.656Z,10.93
2019-05-13T21:26:48.465Z,8.83
2019-05-13T21:29:47.309Z,8.00
2019-05-13T21:32:46.048Z,9.10
2019-05-13T21:35:44.794Z,10.70
2019-05-13T21:38:43.521Z,9.60
2019-05-13T21:41:42.530Z,9.73
2019-05-13T21:44:42.095Z,10.63
2019-05-13T21:47:41.567Z,11.30
2019-05-13T21:50:41.425Z,9.40
2019-05-13T21:53:41.425Z,9.40
2019-05-13T21:56:42.439Z,10.90
2019-05-13T21:59:41.393Z,7.17
2019-05-13T22:02:41.172Z,13.33
2019-05-13T22:05:40.205Z,7.80
2019-05-13T22:08:41.126Z,9.77
2019-05-13T22:11:41.786Z,9.23
2019-05-13T22:14:41.176Z,17.10
2019-05-13T22:17:42.253Z,6.93
2019-05-13T22:20:49.973Z,10.70
2019-05-13T22:23:41.953Z,10.10
2019-05-13T22:26:42.112Z,8.43
2019-05-13T22:29:41.574Z,7.80
2019-05-13T22:32:41.753Z,5.93
2019-05-13T22:35:41.766Z,11.17
2019-05-13T22:38:42.573Z,9.37
2019-05-13T22:41:42.059Z,10.10
2019-05-13T22:44:41.860Z,13.57
2019-05-13T22:47:42.890Z,9.70
2019-05-13T22:50:42.451Z,10.40
2019-05-13T22:53:42.265Z,7.43
2019-05-13T22:56:41.469Z,11.23
2019-05-13T22:59:41.565Z,8.50
2019-05-13T23:02:42.133Z,6.17
2019-05-13T23:05:41.647Z,7.30
2019-05-13T23:08:40.694Z,7.77
2019-05-13T23:11:41.771Z,11.23
2019-05-13T23:14:41.442Z,12.50
2019-05-13T23:17:41.491Z,8.63
2019-05-13T23:20:41.145Z,10.07
2019-05-13T23:23:40.590Z,7.97
2019-05-13T23:26:42.033Z,6.87
2019-05-13T23:29:41.298Z,4.90
2019-05-13T23:32:40.222Z,10.63
2019-05-13T23:35:41.758Z,9.87
2019-05-13T23:38:41.371Z,6.57
2019-05-13T23:41:41.612Z,11.03
2019-05-13T23:44:41.592Z,9.37
2019-05-13T23:47:41.751Z,7.60
2019-05-13T23:50:41.547Z,7.07
2019-05-13T23:53:41.665Z,9.90
2019-05-13T23:56:41.701Z,10.40
2019-05-13T23:59:42.001Z,6.53
